Time;durP1;ratioP1;P1;durP2;ratioP2;P2;SDS_P1;SDS_P2;PMS_P1;PMS_P2;Temp;Humidity;BMP_temperature;BMP_pressure;BME280_temperature;BME280_humidity;BME280_pressure;Samples;Min_cycle;Max_cycle;Signal;HPM_P1;HPM_P2
2021/06/22 00:01:19;;;;;;;4.18;1.30;;;;;;;20.53;67.46;99260.13;2203744;40;20407;-83
2021/06/22 00:02:51;;;;;;;4.63;1.73;;;;;;;20.62;67.50;99246.25;2203867;40;20354;-81
2021/06/22 00:04:22;;;;;;;3.65;1.30;;;;;;;20.70;66.95;99248.63;2203494;40;20086;-83
2021/06/22 00:05:54;;;;;;;4.43;1.35;;;;;;;20.64;67.18;99253.09;2208370;40;20033;-81
2021/06/22 00:07:26;;;;;;;3.22;1.25;;;;;;;20.64;67.41;99247.66;2210488;40;20042;-82
2021/06/22 00:08:58;;;;;;;3.47;1.30;;;;;;;20.65;67.18;99241.19;2204217;40;20055;-83
2021/06/22 00:10:32;;;;;;;3.78;1.08;;;;;;;20.66;67.38;99253.69;2204043;40;20042;-81
2021/06/22 00:12:05;;;;;;;5.70;1.83;;;;;;;20.69;67.49;99245.06;2203991;40;20233;-81
2021/06/22 00:13:38;;;;;;;3.30;1.20;;;;;;;20.72;67.58;99241.91;2207501;40;20035;-82
2021/06/22 00:15:13;;;;;;;3.97;1.35;;;;;;;20.73;67.51;99238.16;2208577;40;20041;-84
2021/06/22 00:16:45;;;;;;;3.97;1.20;;;;;;;20.62;67.94;99232.66;2208870;40;20045;-82
2021/06/22 00:18:17;;;;;;;6.13;1.65;;;;;;;20.60;68.12;99232.88;2210627;40;20472;-81
2021/06/22 00:19:49;;;;;;;5.93;1.35;;;;;;;20.61;68.09;99229.09;2211648;40;20038;-82
2021/06/22 00:21:20;;;;;;;5.35;1.60;;;;;;;20.63;68.01;99227.00;2209295;40;20041;-82
2021/06/22 00:22:54;;;;;;;3.40;1.40;;;;;;;20.64;68.07;99222.41;2211826;40;20046;-82
2021/06/22 00:24:26;;;;;;;3.42;1.30;;;;;;;20.62;68.17;99233.47;2211236;40;20046;-81
2021/06/22 00:25:59;;;;;;;3.45;1.20;;;;;;;20.61;68.36;99234.53;2210800;40;20045;-81
2021/06/22 00:27:30;;;;;;;3.78;1.20;;;;;;;20.57;68.56;99230.66;2210075;40;20053;-82
2021/06/22 00:29:03;;;;;;;3.13;1.30;;;;;;;20.54;68.57;99233.81;2210387;40;20434;-82
2021/06/22 00:30:35;;;;;;;5.07;1.70;;;;;;;20.46;69.02;99237.66;2210581;40;20042;-82
2021/06/22 00:32:06;;;;;;;4.22;1.17;;;;;;;20.46;69.13;99229.53;2210633;40;20387;-81
2021/06/22 00:33:38;;;;;;;5.97;1.60;;;;;;;20.50;68.83;99232.63;2210150;40;20108;-82
2021/06/22 00:35:09;;;;;;;3.97;1.30;;;;;;;20.50;69.01;99228.00;2210525;40;20042;-81
2021/06/22 00:36:41;;;;;;;4.43;1.50;;;;;;;20.55;68.67;99235.47;2210139;40;20022;-82
2021/06/22 00:38:13;;;;;;;4.95;1.80;;;;;;;20.54;68.99;99236.53;2210529;40;20042;-81
2021/06/22 00:39:46;;;;;;;4.95;1.50;;;;;;;20.54;68.99;99239.25;2210250;40;20034;-80
2021/06/22 00:41:18;;;;;;;6.30;2.13;;;;;;;20.47;69.35;99244.75;2210491;40;20140;-83
2021/06/22 00:42:50;;;;;;;6.43;1.88;;;;;;;20.38;69.55;99246.97;2210318;40;20041;-81
2021/06/22 00:44:22;;;;;;;3.30;1.67;;;;;;;20.36;70.12;99254.50;2210427;40;20026;-81
2021/06/22 00:45:54;;;;;;;3.60;1.50;;;;;;;20.39;70.19;99248.63;2205304;40;20106;-82
2021/06/22 00:47:26;;;;;;;4.15;1.33;;;;;;;20.44;69.83;99239.81;2211189;40;20410;-81
2021/06/22 00:48:58;;;;;;;4.47;1.63;;;;;;;20.48;69.58;99249.13;2210566;40;20033;-81
2021/06/22 00:50:30;;;;;;;4.22;1.95;;;;;;;20.52;69.76;99236.75;2210518;40;20026;-82
2021/06/22 00:52:01;;;;;;;3.80;1.80;;;;;;;20.50;69.84;99233.44;2210929;40;20031;-81
2021/06/22 00:53:33;;;;;;;5.00;1.70;;;;;;;20.47;69.89;99233.06;2211401;40;20302;-83
2021/06/22 00:55:11;;;;;;;6.68;2.47;;;;;;;20.44;70.35;99237.09;2212412;40;20030;-83
2021/06/22 00:56:43;;;;;;;5.07;2.20;;;;;;;20.37;70.47;99228.19;2212531;40;20038;-81
2021/06/22 00:58:14;;;;;;;6.13;2.00;;;;;;;20.39;70.58;99221.50;2212442;40;20342;-81
2021/06/22 00:59:48;;;;;;;3.38;1.67;;;;;;;20.38;70.48;99217.13;2212167;40;20034;-82
2021/06/22 01:01:20;;;;;;;3.78;1.55;;;;;;;20.41;70.45;99224.78;2211514;40;20422;-81
2021/06/22 01:02:53;;;;;;;4.88;1.80;;;;;;;20.45;70.40;99218.91;2211696;40;20065;-82
2021/06/22 01:04:27;;;;;;;4.75;1.50;;;;;;;20.48;70.29;99216.56;2205047;40;20291;-82
2021/06/22 01:05:59;;;;;;;4.68;2.30;;;;;;;20.48;70.42;99205.69;2209627;40;20630;-83
2021/06/22 01:07:31;;;;;;;6.05;1.77;;;;;;;20.44;70.41;99217.25;2218658;40;20045;-81
2021/06/22 01:09:04;;;;;;;3.83;1.70;;;;;;;20.37;70.58;99207.31;2217970;40;20045;-81
2021/06/22 01:10:36;;;;;;;6.90;1.88;;;;;;;20.39;70.25;99216.06;2212123;40;20026;-82
2021/06/22 01:12:09;;;;;;;4.30;1.80;;;;;;;20.41;70.38;99216.63;2210225;40;20050;-81
2021/06/22 01:13:40;;;;;;;5.45;2.13;;;;;;;20.41;70.52;99224.78;2210280;40;20045;-80
2021/06/22 01:15:20;;;;;;;4.65;2.28;;;;;;;20.44;70.25;99217.25;2211171;40;20445;-82
2021/06/22 01:16:50;;;;;;;5.15;2.30;;;;;;;20.42;70.04;99218.28;2208534;40;20361;-82
2021/06/22 01:18:22;;;;;;;5.70;2.40;;;;;;;20.45;70.41;99218.91;2210467;40;20040;-82
2021/06/22 01:19:54;;;;;;;4.82;2.03;;;;;;;20.38;70.83;99225.25;2210405;40;20045;-82
2021/06/22 01:21:28;;;;;;;5.00;2.05;;;;;;;20.29;70.93;99225.78;2210320;40;20062;-80
2021/06/22 01:23:01;;;;;;;5.68;2.75;;;;;;;20.22;71.10;99223.16;2209870;40;20034;-83
2021/06/22 01:24:33;;;;;;;4.40;2.20;;;;;;;20.14;71.27;99224.31;2210480;40;20049;-80
2021/06/22 01:26:05;;;;;;;4.38;1.90;;;;;;;20.09;71.18;99224.16;2210808;40;20084;-79
2021/06/22 01:27:37;;;;;;;7.75;2.22;;;;;;;20.03;71.41;99216.94;2210733;40;20038;-81
2021/06/22 01:29:09;;;;;;;4.80;2.15;;;;;;;19.94;71.97;99221.81;2210938;40;20046;-80
2021/06/22 01:30:41;;;;;;;4.88;2.30;;;;;;;19.88;71.84;99222.72;2209747;40;20034;-81
2021/06/22 01:32:13;;;;;;;4.47;1.80;;;;;;;19.82;72.14;99220.91;2209777;40;20058;-80
2021/06/22 01:33:48;;;;;;;5.10;2.25;;;;;;;19.77;72.47;99230.53;2210484;40;20034;-83
2021/06/22 01:35:20;;;;;;;5.85;2.88;;;;;;;19.70;72.99;99232.50;2209126;40;20425;-80
2021/06/22 01:36:54;;;;;;;6.50;2.17;;;;;;;19.63;73.31;99229.03;2210051;40;20046;-80
2021/06/22 01:38:25;;;;;;;5.63;2.22;;;;;;;19.53;73.48;99229.53;2210373;40;20080;-81
2021/06/22 01:39:57;;;;;;;4.43;2.00;;;;;;;19.44;73.92;99239.00;2211201;40;20054;-81
2021/06/22 01:41:29;;;;;;;5.50;2.53;;;;;;;19.37;74.49;99230.09;2213393;40;20046;-85
2021/06/22 01:43:02;;;;;;;3.90;2.10;;;;;;;19.30;74.39;99233.72;2212274;40;20314;-83
2021/06/22 01:44:34;;;;;;;5.00;2.17;;;;;;;19.30;74.71;99236.41;2210699;40;20037;-83
2021/06/22 01:46:06;;;;;;;5.13;1.88;;;;;;;19.27;74.80;99236.84;2204899;40;20125;-84
2021/06/22 01:47:40;;;;;;;4.00;2.05;;;;;;;19.24;74.51;99241.88;2207884;40;20273;-82
2021/06/22 01:49:11;;;;;;;7.05;2.15;;;;;;;19.23;74.70;99234.81;2210342;40;20050;-81
2021/06/22 01:50:43;;;;;;;5.55;2.00;;;;;;;19.20;74.74;99246.09;2210565;40;20054;-81
2021/06/22 01:52:17;;;;;;;4.55;1.95;;;;;;;19.17;74.85;99247.34;2209168;40;20050;-79
2021/06/22 01:53:53;;;;;;;3.47;2.00;;;;;;;19.11;74.94;99246.34;2208980;40;20051;-81
2021/06/22 01:55:39;;;;;;;5.78;2.42;;;;;;;19.11;74.95;99248.25;2202019;40;20041;-82
2021/06/22 01:57:10;;;;;;;7.90;2.38;;;;;;;19.07;75.18;99247.88;2202133;40;20035;-84
2021/06/22 01:58:42;;;;;;;4.30;2.10;;;;;;;19.06;75.11;99251.63;2203055;40;20318;-84
2021/06/22 02:00:15;;;;;;;5.47;2.40;;;;;;;19.04;75.69;99242.88;2204086;40;20039;-78
2021/06/22 02:01:47;;;;;;;4.78;2.40;;;;;;;19.00;75.70;99250.63;2209420;40;20046;-79
2021/06/22 02:03:21;;;;;;;6.07;2.47;;;;;;;19.03;75.44;99246.63;2209019;40;20143;-80
2021/06/22 02:04:53;;;;;;;5.32;2.33;;;;;;;19.04;75.56;99240.16;2209638;40;20094;-84
2021/06/22 02:06:26;;;;;;;5.22;2.53;;;;;;;19.05;75.39;99249.94;2210357;40;20045;-81
2021/06/22 02:07:59;;;;;;;5.00;2.50;;;;;;;19.04;75.28;99247.44;2208724;40;20033;-80
2021/06/22 02:09:31;;;;;;;8.52;2.80;;;;;;;18.95;75.72;99255.03;2209803;40;20038;-81
2021/06/22 02:11:03;;;;;;;6.85;2.75;;;;;;;18.89;75.96;99255.88;2209036;40;20406;-79
2021/06/22 02:12:34;;;;;;;5.18;2.42;;;;;;;18.86;76.05;99262.53;2209749;40;20443;-78
2021/06/22 02:14:05;;;;;;;6.65;2.75;;;;;;;18.85;76.24;99269.84;2209100;40;20042;-79
2021/06/22 02:15:37;;;;;;;5.47;3.10;;;;;;;18.86;75.95;99274.22;2208972;40;20058;-79
2021/06/22 02:17:09;;;;;;;4.80;2.65;;;;;;;18.88;75.78;99278.59;2209586;40;20030;-79
2021/06/22 02:18:41;;;;;;;6.70;2.80;;;;;;;18.86;75.84;99278.78;2209161;40;20036;-80
2021/06/22 02:20:13;;;;;;;4.88;2.80;;;;;;;18.86;76.09;99285.03;2208915;40;20167;-80
2021/06/22 02:21:44;;;;;;;5.30;2.92;;;;;;;18.83;76.21;99285.47;2208492;40;20053;-80
2021/06/22 02:23:18;;;;;;;5.75;3.05;;;;;;;18.80;76.33;99295.91;2208104;40;20034;-80
2021/06/22 02:24:49;;;;;;;5.75;3.03;;;;;;;18.77;76.35;99296.34;2209628;40;20309;-80
2021/06/22 02:26:21;;;;;;;3.88;2.72;;;;;;;18.74;76.27;99285.97;2210814;40;20042;-80
2021/06/22 02:28:00;;;;;;;5.32;2.67;;;;;;;18.75;76.32;99277.63;2211111;40;20045;-80
2021/06/22 02:29:32;;;;;;;4.75;2.72;;;;;;;18.77;76.06;99282.78;2209989;40;20026;-81
2021/06/22 02:31:04;;;;;;;5.22;2.90;;;;;;;18.81;76.29;99275.91;2209958;40;20057;-82
2021/06/22 02:32:35;;;;;;;4.53;2.83;;;;;;;18.81;76.22;99281.31;2209682;40;20038;-83
2021/06/22 02:34:06;;;;;;;4.25;2.47;;;;;;;18.77;76.20;99286.34;2209046;40;20060;-80
2021/06/22 02:35:38;;;;;;;5.32;2.90;;;;;;;18.77;76.25;99275.53;2208718;40;20034;-81
2021/06/22 02:37:10;;;;;;;5.68;2.70;;;;;;;18.77;75.83;99280.94;2209338;40;20049;-80
2021/06/22 02:38:43;;;;;;;4.95;3.35;;;;;;;18.82;75.99;99278.41;2209235;40;20061;-79
2021/06/22 02:40:15;;;;;;;4.88;2.63;;;;;;;18.80;75.91;99288.59;2207740;40;20049;-80
2021/06/22 02:41:46;;;;;;;5.32;2.80;;;;;;;18.75;76.11;99283.03;2207880;40;20041;-79
2021/06/22 02:43:18;;;;;;;5.53;3.05;;;;;;;18.71;75.87;99288.03;2206788;40;20566;-79
2021/06/22 02:44:49;;;;;;;7.07;3.22;;;;;;;18.71;75.85;99293.47;2208236;40;20378;-78
2021/06/22 02:46:21;;;;;;;4.63;2.85;;;;;;;18.66;75.99;99295.16;2207466;40;20038;-79
2021/06/22 02:47:53;;;;;;;4.82;2.80;;;;;;;18.66;76.31;99293.25;2207607;40;20037;-78
2021/06/22 02:49:24;;;;;;;4.55;2.40;;;;;;;18.67;75.98;99292.22;2207888;40;20480;-80
2021/06/22 02:50:56;;;;;;;4.40;2.83;;;;;;;18.74;76.03;99292.19;2207587;40;20034;-80
2021/06/22 02:52:27;;;;;;;4.82;2.55;;;;;;;18.85;75.69;99282.53;2208173;40;20033;-83
2021/06/22 02:54:00;;;;;;;5.25;2.90;;;;;;;18.88;75.52;99270.47;2208164;40;20189;-79
2021/06/22 02:55:33;;;;;;;4.72;2.58;;;;;;;18.85;75.54;99272.56;2208283;40;20047;-81
2021/06/22 02:57:07;;;;;;;4.45;2.50;;;;;;;18.85;75.50;99261.72;2208591;40;20382;-80
2021/06/22 02:58:38;;;;;;;6.75;2.50;;;;;;;18.87;75.10;99269.63;2209001;40;20333;-78
2021/06/22 03:00:11;;;;;;;6.85;2.60;;;;;;;18.94;75.41;99266.91;2208677;40;20037;-79
2021/06/22 03:01:43;;;;;;;5.32;3.47;;;;;;;18.98;75.19;99270.84;2208791;40;20058;-80
2021/06/22 03:03:15;;;;;;;6.43;4.32;;;;;;;18.97;75.12;99266.47;2209453;40;20350;-80
2021/06/22 03:04:47;;;;;;;6.10;4.38;;;;;;;18.90;75.16;99268.34;2211066;40;20028;-80
2021/06/22 03:06:19;;;;;;;4.75;3.63;;;;;;;18.89;75.24;99261.28;2208611;40;20134;-80
2021/06/22 03:07:50;;;;;;;6.18;4.22;;;;;;;18.89;75.41;99261.28;2209125;40;20311;-80
2021/06/22 03:09:23;;;;;;;6.78;4.80;;;;;;;18.90;75.73;99271.06;2208278;40;20052;-81
2021/06/22 03:10:55;;;;;;;7.50;4.53;;;;;;;18.91;75.47;99261.88;2208620;40;20335;-79
2021/06/22 03:12:26;;;;;;;7.95;4.40;;;;;;;18.92;75.54;99263.53;2208661;40;20326;-79
2021/06/22 03:13:57;;;;;;;5.97;3.58;;;;;;;18.94;75.40;99265.00;2213821;40;20041;-80
2021/06/22 03:15:29;;;;;;;7.88;5.43;;;;;;;18.99;75.17;99267.91;2210350;40;20034;-79
2021/06/22 03:17:00;;;;;;;6.18;3.75;;;;;;;18.97;75.22;99270.00;2206679;40;20041;-80
2021/06/22 03:18:32;;;;;;;6.78;3.75;;;;;;;18.98;75.28;99270.84;2208269;40;20045;-81
2021/06/22 03:20:05;;;;;;;6.07;4.50;;;;;;;19.01;75.33;99273.09;2208008;40;20299;-79
2021/06/22 03:21:37;;;;;;;7.97;4.25;;;;;;;19.06;75.11;99278.69;2208044;40;20425;-79
2021/06/22 03:23:09;;;;;;;7.18;4.88;;;;;;;19.08;75.03;99282.00;2208388;40;20038;-82
2021/06/22 03:24:42;;;;;;;5.10;3.53;;;;;;;19.11;74.98;99273.44;2209577;40;20034;-85
2021/06/22 03:26:13;;;;;;;7.10;4.53;;;;;;;19.13;74.72;99274.06;2203145;40;20043;-81
2021/06/22 03:27:46;;;;;;;8.68;4.85;;;;;;;19.11;74.70;99269.91;2206412;40;20322;-79
2021/06/22 03:29:18;;;;;;;6.75;4.68;;;;;;;19.07;75.21;99266.81;2208194;40;20034;-80
2021/06/22 03:30:49;;;;;;;8.60;4.78;;;;;;;19.08;75.18;99268.47;2208755;40;20338;-81
2021/06/22 03:32:23;;;;;;;7.22;4.07;;;;;;;19.10;75.30;99260.94;2209390;40;20058;-80
2021/06/22 03:33:54;;;;;;;6.38;4.95;;;;;;;19.12;75.10;99264.28;2209182;40;20053;-82
2021/06/22 03:35:28;;;;;;;8.32;5.13;;;;;;;19.13;75.04;99254.25;2208968;40;20034;-83
2021/06/22 03:37:00;;;;;;;6.07;4.25;;;;;;;19.20;75.07;99262.34;2209027;40;20314;-79
2021/06/22 03:38:31;;;;;;;7.72;4.97;;;;;;;19.16;74.89;99261.94;2209009;40;20058;-79
2021/06/22 03:40:07;;;;;;;6.10;3.97;;;;;;;19.13;75.13;99257.81;2208853;40;20207;-79
2021/06/22 03:41:39;;;;;;;7.13;5.15;;;;;;;19.23;75.36;99253.78;2207548;40;20072;-80
2021/06/22 03:43:11;;;;;;;6.72;5.03;;;;;;;19.26;75.36;99256.06;2207837;40;20064;-79
2021/06/22 03:44:43;;;;;;;7.15;4.47;;;;;;;19.27;75.32;99253.13;2206964;40;20034;-80
2021/06/22 03:46:18;;;;;;;8.50;5.53;;;;;;;19.24;75.45;99256.25;2208302;40;20033;-78
2021/06/22 03:47:49;;;;;;;8.48;5.28;;;;;;;19.14;75.57;99259.47;2207001;40;20050;-78
2021/06/22 03:49:20;;;;;;;6.95;4.28;;;;;;;19.17;75.86;99261.75;2207995;40;20057;-77
2021/06/22 03:50:52;;;;;;;8.00;5.30;;;;;;;19.24;75.66;99258.16;2206394;40;20038;-78
2021/06/22 03:52:24;;;;;;;9.75;5.40;;;;;;;19.22;75.56;99252.13;2207024;40;20034;-78
2021/06/22 03:53:55;;;;;;;9.02;5.47;;;;;;;19.21;75.73;99251.28;2206813;40;20037;-78
2021/06/22 03:55:28;;;;;;;6.30;4.35;;;;;;;19.29;75.64;99255.59;2206939;40;20058;-83
2021/06/22 03:57:00;;;;;;;8.27;4.90;;;;;;;19.33;75.78;99260.34;2211281;40;20038;-84
2021/06/22 03:58:32;;;;;;;9.85;5.82;;;;;;;19.35;75.42;99252.00;2211361;40;20034;-83
2021/06/22 04:00:05;;;;;;;9.40;5.38;;;;;;;19.36;75.64;99261.81;2210688;40;20542;-80
2021/06/22 04:01:36;;;;;;;10.05;4.38;;;;;;;19.35;75.41;99257.44;2211599;40;20043;-81
2021/06/22 04:03:07;;;;;;;8.05;4.20;;;;;;;19.39;75.25;99263.22;2212627;40;20045;-82
2021/06/22 04:04:39;;;;;;;6.40;4.00;;;;;;;19.42;75.44;99265.47;2211486;40;20029;-80
2021/06/22 04:06:11;;;;;;;6.28;3.60;;;;;;;19.45;75.11;99265.03;2210200;40;20045;-82
2021/06/22 04:07:42;;;;;;;6.78;4.03;;;;;;;19.51;74.92;99264.16;2206919;40;20357;-81
2021/06/22 04:09:14;;;;;;;8.27;5.80;;;;;;;19.54;74.63;99254.75;2216217;40;20030;-79
2021/06/22 04:10:47;;;;;;;8.00;5.22;;;;;;;19.46;75.05;99262.09;2210998;40;20058;-80
2021/06/22 04:12:19;;;;;;;7.68;5.53;;;;;;;19.45;75.19;99257.75;2210922;40;20041;-82
2021/06/22 04:13:50;;;;;;;10.30;4.55;;;;;;;19.47;74.94;99269.19;2210327;40;20034;-82
2021/06/22 04:15:22;;;;;;;9.93;6.22;;;;;;;19.45;75.04;99260.47;2209788;40;20030;-81
2021/06/22 04:16:53;;;;;;;13.40;6.75;;;;;;;19.36;75.40;99272.66;2209456;40;20041;-83
2021/06/22 04:18:24;;;;;;;11.95;5.57;;;;;;;19.23;75.74;99270.03;2209984;40;20030;-83
2021/06/22 04:19:56;;;;;;;11.10;6.45;;;;;;;19.18;76.03;99270.69;2210919;40;20042;-83
2021/06/22 04:21:28;;;;;;;7.80;5.80;;;;;;;19.08;76.26;99271.16;2211708;40;20454;-83
2021/06/22 04:23:00;;;;;;;9.52;5.97;;;;;;;19.01;76.80;99262.25;2212458;40;20030;-81
2021/06/22 04:24:30;;;;;;;9.30;5.90;;;;;;;19.00;76.64;99250.63;2212362;40;20038;-83
2021/06/22 04:26:04;;;;;;;7.05;5.38;;;;;;;19.01;76.86;99246.00;2211966;40;20049;-84
2021/06/22 04:27:35;;;;;;;7.10;4.30;;;;;;;19.06;76.63;99248.91;2211796;40;20046;-84
2021/06/22 04:29:07;;;;;;;10.32;5.57;;;;;;;19.13;76.71;99246.97;2210515;40;20090;-82
2021/06/22 04:30:39;;;;;;;9.68;5.53;;;;;;;19.15;76.65;99247.59;2210668;40;20034;-82
2021/06/22 04:32:10;;;;;;;9.25;5.88;;;;;;;19.12;76.32;99248.03;2211969;40;20041;-81
2021/06/22 04:33:42;;;;;;;7.43;6.07;;;;;;;19.10;76.56;99252.00;2210615;40;20046;-82
2021/06/22 04:35:15;;;;;;;8.32;5.70;;;;;;;19.02;76.93;99251.22;2210589;40;20034;-82
2021/06/22 04:36:47;;;;;;;8.55;5.55;;;;;;;19.00;76.90;99255.19;2212609;40;20030;-81
2021/06/22 04:38:19;;;;;;;13.45;5.70;;;;;;;18.96;76.85;99256.69;2213484;40;20045;-81
2021/06/22 04:39:50;;;;;;;8.32;5.30;;;;;;;18.93;77.06;99262.53;2212766;40;20138;-83
2021/06/22 04:41:23;;;;;;;8.50;4.90;;;;;;;18.90;77.13;99262.94;2213308;40;20042;-81
2021/06/22 04:42:55;;;;;;;7.57;5.18;;;;;;;18.90;77.37;99262.94;2213151;40;20026;-80
2021/06/22 04:44:27;;;;;;;7.07;5.10;;;;;;;18.90;77.09;99265.63;2215139;40;20026;-80
2021/06/22 04:45:59;;;;;;;8.95;5.75;;;;;;;18.92;77.31;99268.97;2213620;40;20030;-79
2021/06/22 04:47:30;;;;;;;7.45;4.72;;;;;;;18.93;77.25;99270.66;2213361;40;20045;-82
2021/06/22 04:49:03;;;;;;;8.23;4.93;;;;;;;19.00;76.72;99274.13;2211801;40;20038;-80
2021/06/22 04:50:33;;;;;;;9.55;5.40;;;;;;;19.00;76.52;99275.00;2212161;40;20063;-82
2021/06/22 04:52:06;;;;;;;10.40;5.38;;;;;;;18.93;76.90;99263.38;2212680;40;20037;-81
2021/06/22 04:53:37;;;;;;;6.85;4.60;;;;;;;18.89;76.92;99264.00;2213448;40;20064;-82
2021/06/22 04:55:12;;;;;;;6.30;4.97;;;;;;;18.86;77.16;99257.13;2213280;40;20034;-83
2021/06/22 04:56:47;;;;;;;8.15;4.90;;;;;;;18.91;77.02;99259.19;2205734;40;20140;-83
2021/06/22 04:58:19;;;;;;;6.63;4.72;;;;;;;18.94;76.85;99253.38;2205483;40;20322;-81
2021/06/22 04:59:51;;;;;;;6.53;4.10;;;;;;;19.02;76.85;99270.19;2205351;40;20038;-82
2021/06/22 05:01:23;;;;;;;10.10;5.20;;;;;;;19.11;76.58;99268.03;2205550;40;20086;-82
2021/06/22 05:02:54;;;;;;;6.88;4.05;;;;;;;19.18;76.44;99276.09;2204903;40;20287;-85
2021/06/22 05:04:26;;;;;;;7.50;4.13;;;;;;;19.25;76.35;99268.75;2206230;40;20031;-80
2021/06/22 05:05:58;;;;;;;7.38;4.13;;;;;;;19.33;76.09;99273.06;2213298;40;20030;-80
2021/06/22 05:07:30;;;;;;;7.28;4.60;;;;;;;19.37;75.61;99268.84;2213199;40;20038;-81
2021/06/22 05:09:02;;;;;;;7.03;4.28;;;;;;;19.35;75.75;99268.28;2212169;40;20050;-83
2021/06/22 05:10:34;;;;;;;7.18;3.72;;;;;;;19.37;75.74;99266.16;2212077;40;20185;-83
2021/06/22 05:12:08;;;;;;;8.60;3.60;;;;;;;19.44;75.41;99260.69;2212702;40;20448;-79
2021/06/22 05:13:39;;;;;;;10.98;4.72;;;;;;;19.45;75.43;99265.03;2214058;40;20480;-81
2021/06/22 05:15:11;;;;;;;5.53;2.95;;;;;;;19.48;75.09;99270.84;2211578;40;20045;-80
2021/06/22 05:16:43;;;;;;;5.53;3.65;;;;;;;19.56;75.15;99277.03;2211387;40;20060;-80
2021/06/22 05:18:15;;;;;;;6.82;3.78;;;;;;;19.64;74.72;99285.72;2211418;40;20080;-81
2021/06/22 05:19:46;;;;;;;5.53;4.03;;;;;;;19.69;74.47;99281.53;2210411;40;20042;-82
2021/06/22 05:21:18;;;;;;;6.10;3.28;;;;;;;19.77;74.05;99283.94;2210266;40;20041;-81
2021/06/22 05:22:50;;;;;;;5.15;3.00;;;;;;;19.83;74.28;99287.66;2211669;40;20599;-83
2021/06/22 05:24:21;;;;;;;6.20;3.63;;;;;;;19.90;73.97;99288.44;2212141;40;20042;-80
2021/06/22 05:25:53;;;;;;;7.00;4.00;;;;;;;19.92;73.61;99286.34;2214164;40;20046;-79
2021/06/22 05:27:25;;;;;;;5.65;4.38;;;;;;;19.82;73.75;99294.13;2214076;40;20484;-79
2021/06/22 05:28:57;;;;;;;7.50;4.82;;;;;;;19.72;74.01;99292.75;2210692;40;20541;-80
2021/06/22 05:30:28;;;;;;;6.40;4.40;;;;;;;19.68;74.35;99293.41;2210641;40;20046;-81
2021/06/22 05:31:59;;;;;;;7.85;5.45;;;;;;;19.69;74.51;99293.19;2210944;40;20061;-85
2021/06/22 05:33:31;;;;;;;7.35;3.90;;;;;;;19.73;74.24;99297.13;2211691;40;20034;-82
2021/06/22 05:35:03;;;;;;;5.63;3.35;;;;;;;19.83;74.23;99303.91;2211131;40;20049;-81
2021/06/22 05:36:35;;;;;;;9.70;4.40;;;;;;;19.92;73.58;99308.03;2210370;40;20441;-85
2021/06/22 05:38:08;;;;;;;7.85;4.40;;;;;;;20.00;73.28;99304.16;2210639;40;20215;-82
2021/06/22 05:39:39;;;;;;;6.18;4.05;;;;;;;20.05;73.04;99307.06;2210081;40;20037;-82
2021/06/22 05:41:11;;;;;;;9.20;3.55;;;;;;;20.10;73.29;99308.03;2210536;40;20041;-85
2021/06/22 05:42:44;;;;;;;8.60;5.38;;;;;;;20.13;72.88;99303.19;2211606;40;20293;-83
2021/06/22 05:44:15;;;;;;;8.48;4.50;;;;;;;20.02;73.06;99305.63;2210422;40;20034;-79
2021/06/22 05:45:47;;;;;;;8.68;4.78;;;;;;;20.06;73.01;99308.72;2210392;40;20395;-82
2021/06/22 05:47:19;;;;;;;7.07;4.70;;;;;;;20.08;73.21;99304.72;2209966;40;20034;-82
2021/06/22 05:48:51;;;;;;;7.25;4.22;;;;;;;20.14;72.83;99311.13;2211237;40;20034;-82
2021/06/22 05:50:23;;;;;;;11.57;5.63;;;;;;;20.06;72.75;99306.81;2210388;40;20042;-82
2021/06/22 05:51:54;;;;;;;8.43;4.30;;;;;;;20.03;73.24;99304.56;2210647;40;20038;-83
2021/06/22 05:53:26;;;;;;;7.18;3.45;;;;;;;20.07;73.02;99297.63;2210594;40;20049;-84
2021/06/22 05:54:58;;;;;;;6.57;4.00;;;;;;;20.17;72.90;99304.41;2211065;40;20042;-83
2021/06/22 05:56:29;;;;;;;10.20;5.82;;;;;;;20.20;72.35;99304.78;2211462;40;20030;-83
2021/06/22 05:58:02;;;;;;;10.05;4.88;;;;;;;20.17;72.67;99305.22;2212407;40;20045;-82
2021/06/22 05:59:34;;;;;;;12.02;5.47;;;;;;;20.15;72.60;99303.81;2211135;40;20041;-82
2021/06/22 06:01:06;;;;;;;10.43;5.95;;;;;;;20.06;72.42;99314.16;2210693;40;20026;-82
2021/06/22 06:02:37;;;;;;;13.32;6.07;;;;;;;19.90;72.68;99315.56;2210437;40;20435;-82
2021/06/22 06:04:14;;;;;;;6.47;4.75;;;;;;;19.76;73.53;99314.81;2210917;40;20030;-83
2021/06/22 06:05:45;;;;;;;10.98;4.88;;;;;;;19.68;73.74;99310.50;2210750;40;20041;-82
2021/06/22 06:07:17;;;;;;;7.70;4.13;;;;;;;19.74;73.97;99316.91;2211310;40;20341;-86
2021/06/22 06:08:48;;;;;;;7.90;4.35;;;;;;;19.81;73.40;99320.38;2212053;40;20461;-82
2021/06/22 06:10:21;;;;;;;8.93;5.80;;;;;;;19.84;73.47;99322.66;2210575;40;20393;-83
2021/06/22 06:11:53;;;;;;;6.07;4.47;;;;;;;19.87;73.65;99333.09;2210326;40;20132;-82
2021/06/22 06:13:30;;;;;;;5.35;3.50;;;;;;;19.95;73.34;99324.69;2209787;40;20033;-82
2021/06/22 06:15:02;;;;;;;7.70;4.97;;;;;;;20.01;72.72;99322.97;2203443;40;20422;-81
2021/06/22 06:16:34;;;;;;;11.10;6.40;;;;;;;20.02;72.98;99324.63;2203713;40;20054;-81
2021/06/22 06:18:06;;;;;;;10.00;7.05;;;;;;;20.03;73.16;99325.44;2203511;40;20061;-81
2021/06/22 06:19:37;;;;;;;15.73;8.25;;;;;;;19.98;73.10;99328.00;2204413;40;20042;-82
2021/06/22 06:21:09;;;;;;;8.75;5.70;;;;;;;20.00;73.21;99334.00;2204979;40;20423;-82
2021/06/22 06:22:41;;;;;;;6.35;5.10;;;;;;;20.09;72.90;99336.22;2206593;40;20452;-81
2021/06/22 06:24:13;;;;;;;8.30;4.78;;;;;;;20.09;72.61;99336.22;2210293;40;20053;-80
2021/06/22 06:25:45;;;;;;;9.05;5.97;;;;;;;20.09;72.67;99335.38;2210072;40;20116;-82
2021/06/22 06:27:18;;;;;;;8.13;4.72;;;;;;;20.07;72.49;99335.59;2212136;40;20049;-82
2021/06/22 06:28:53;;;;;;;8.55;5.53;;;;;;;20.11;72.44;99344.13;2216341;40;20069;-82
2021/06/22 06:30:29;;;;;;;5.80;4.63;;;;;;;20.10;72.50;99337.88;2210665;40;20082;-81
2021/06/22 06:32:00;;;;;;;5.65;4.35;;;;;;;20.15;72.47;99339.06;2211490;40;20111;-80
2021/06/22 06:33:32;;;;;;;6.28;4.82;;;;;;;20.18;72.39;99338.63;2210054;40;20108;-81
2021/06/22 06:35:04;;;;;;;6.65;4.97;;;;;;;20.14;72.16;99349.13;2212592;40;20047;-82
2021/06/22 06:36:36;;;;;;;5.88;4.15;;;;;;;20.16;72.24;99343.44;2206695;40;20038;-84
2021/06/22 06:38:07;;;;;;;5.38;4.10;;;;;;;20.17;72.22;99347.81;2206297;40;20065;-81
2021/06/22 06:39:39;;;;;;;7.10;3.70;;;;;;;20.19;72.27;99349.25;2211264;40;20022;-83
2021/06/22 06:41:10;;;;;;;9.38;6.80;;;;;;;20.24;71.95;99344.00;2214159;40;20038;-82
2021/06/22 06:42:43;;;;;;;8.27;5.75;;;;;;;20.17;71.98;99343.22;2210824;40;20030;-80
2021/06/22 06:44:16;;;;;;;8.30;4.28;;;;;;;20.19;72.31;99345.72;2210507;40;20068;-80
2021/06/22 06:45:47;;;;;;;6.85;4.43;;;;;;;20.29;71.77;99351.47;2211582;40;20031;-83
2021/06/22 06:47:18;;;;;;;12.07;5.70;;;;;;;20.29;71.56;99346.03;2211478;40;20174;-82
2021/06/22 06:48:50;;;;;;;7.65;4.28;;;;;;;20.29;71.82;99353.31;2211360;40;20577;-81
2021/06/22 06:50:22;;;;;;;8.23;4.65;;;;;;;20.29;71.83;99347.91;2213766;40;20049;-80
2021/06/22 06:51:53;;;;;;;5.90;4.65;;;;;;;20.26;71.88;99362.75;2212278;40;20045;-80
2021/06/22 06:53:26;;;;;;;28.77;20.88;;;;;;;20.17;72.03;99353.25;2212160;40;20046;-80
2021/06/22 06:54:56;;;;;;;11.25;9.02;;;;;;;20.08;71.62;99353.56;2211987;40;20049;-81
2021/06/22 06:56:28;;;;;;;13.38;7.90;;;;;;;20.05;71.75;99362.13;2212634;40;20037;-80
2021/06/22 06:58:02;;;;;;;13.63;9.15;;;;;;;20.02;71.76;99350.91;2210563;40;20030;-82
2021/06/22 06:59:35;;;;;;;8.48;6.10;;;;;;;19.95;71.75;99348.25;2210891;40;20041;-83
2021/06/22 07:01:07;;;;;;;9.18;7.05;;;;;;;19.94;72.36;99362.84;2209852;40;20042;-83
2021/06/22 07:02:38;;;;;;;8.75;5.45;;;;;;;19.97;72.03;99351.56;2210051;40;20415;-83
2021/06/22 07:04:10;;;;;;;8.50;5.97;;;;;;;20.02;72.16;99350.91;2210051;40;20049;-82
2021/06/22 07:05:41;;;;;;;7.10;5.72;;;;;;;20.06;71.91;99352.13;2210919;40;20034;-81
2021/06/22 07:07:13;;;;;;;9.38;6.38;;;;;;;20.10;72.11;99354.16;2210710;40;20037;-82
2021/06/22 07:08:45;;;;;;;10.90;5.97;;;;;;;20.08;72.41;99358.97;2211559;40;20030;-79
2021/06/22 07:10:17;;;;;;;9.23;6.68;;;;;;;20.06;72.57;99363.78;2212837;40;20033;-80
2021/06/22 07:11:48;;;;;;;7.30;6.53;;;;;;;19.96;72.67;99358.03;2213191;40;20499;-79
2021/06/22 07:13:19;;;;;;;10.07;7.03;;;;;;;19.90;73.08;99348.09;2213525;40;20038;-81